LiveATC.Net - Listen to live air traffic control over the Internet!


ICAO: KIAB  IATA: IAB   Airport: Mc Connell Air Force Base
City: Wichita   State/Province: Kansas
Country: United States   Continent: North America
KIAB METAR Weather: KIAB 260758Z AUTO 16007KT 10SM FEW014 22/19 A3008 RMK AO2 SLP175 T02210194
KIAB Flight Activity (FlightAware)
KIAB Airport Info   (AirNav) (iFlightPlanner)
KIAB VFR Sectional Chart   (iFlightPlanner) 
KIAB IFR Low Chart   (iFlightPlanner) 
KIAB Tower
Feed Status: UP   Listeners: 0
Listen right in your browser - requires Flash (in browser, requires Flash)
Click here to listen with your own player (launches your MP3 player)
KIAB Tower Audio Archives
FacilityFrequency
Mc Connell Tower127.250

Feed courtesy of Hubris Communications

NOTICE

Unauthorized use prohibited. See LiveATC.net Terms of Service


Find LiveATC Audio Streams


Airport/ARTCC Code

Frequency
(e.g., 124.400, 128.75)
Site-wide search

Browse LiveATC Feeds
LiveATC Coverage Map
Top 50 LiveATC Feeds
Bad Weather Areas

LiveATC FAQ
Offer a LiveATC Feed
Contact LiveATC.net
Press Inquiries

LiveATC on iPhone
LiveATC on Android

Windows Phone
Windows 8/10

LiveATC Mobile
(Mobile browser)

ATC Audio Archives
Interesting Recordings

LiveATC Forums


Home Page
About LiveATC.net
Make a Donation
LiveATC Store

Terms of Use
Privacy Policy

Canadian Air Freqs

AIRMETs/SIGMETs

FAA Airport Status
Nat'l Airspace Status
Arrival Demand Charts


Server Software By:
Icecast.org
Liquidsoap